sensor_id;sensor_type;location;lat;lon;timestamp;pressure;altitude;pressure_sealevel;temperature;humidity
68793;BME280;55778;54.346;10.210;2023-02-19T00:01:21;101034.09;;;2.51;100.00
68793;BME280;55778;54.346;10.210;2023-02-19T00:03:54;101039.56;;;2.50;100.00
68793;BME280;55778;54.346;10.210;2023-02-19T00:06:21;101048.53;;;2.50;100.00
68793;BME280;55778;54.346;10.210;2023-02-19T00:08:47;101044.19;;;2.48;100.00
68793;BME280;55778;54.346;10.210;2023-02-19T00:11:16;101044.59;;;2.56;100.00
68793;BME280;55778;54.346;10.210;2023-02-19T00:13:44;101046.78;;;2.49;100.00
68793;BME280;55778;54.346;10.210;2023-02-19T00:16:11;101054.22;;;2.60;100.00
68793;BME280;55778;54.346;10.210;2023-02-19T00:18:38;101056.31;;;2.55;100.00
68793;BME280;55778;54.346;10.210;2023-02-19T00:21:04;101059.06;;;2.69;100.00
68793;BME280;55778;54.346;10.210;2023-02-19T00:23:30;101056.25;;;2.56;100.00
68793;BME280;55778;54.346;10.210;2023-02-19T00:25:56;101060.66;;;2.57;100.00
68793;BME280;55778;54.346;10.210;2023-02-19T00:28:22;101054.84;;;2.65;100.00
68793;BME280;55778;54.346;10.210;2023-02-19T00:30:47;101058.88;;;2.72;100.00
68793;BME280;55778;54.346;10.210;2023-02-19T00:33:14;101057.06;;;2.72;100.00
68793;BME280;55778;54.346;10.210;2023-02-19T00:35:39;101062.63;;;2.69;100.00
68793;BME280;55778;54.346;10.210;2023-02-19T00:38:05;101062.38;;;2.74;100.00
68793;BME280;55778;54.346;10.210;2023-02-19T00:40:30;101065.75;;;2.77;100.00
68793;BME280;55778;54.346;10.210;2023-02-19T00:42:56;101070.44;;;2.74;100.00
68793;BME280;55778;54.346;10.210;2023-02-19T00:45:21;101064.88;;;2.77;100.00
68793;BME280;55778;54.346;10.210;2023-02-19T00:47:47;101073.84;;;2.77;100.00
68793;BME280;55778;54.346;10.210;2023-02-19T00:50:12;101064.88;;;2.77;100.00
68793;BME280;55778;54.346;10.210;2023-02-19T00:52:37;101071.59;;;2.70;100.00
68793;BME280;55778;54.346;10.210;2023-02-19T00:55:03;101079.97;;;2.79;100.00
68793;BME280;55778;54.346;10.210;2023-02-19T00:57:29;101077.97;;;2.83;100.00
68793;BME280;55778;54.346;10.210;2023-02-19T00:59:54;101073.56;;;2.82;100.00
68793;BME280;55778;54.346;10.210;2023-02-19T01:02:20;101073.47;;;2.83;100.00
68793;BME280;55778;54.346;10.210;2023-02-19T01:04:45;101071.13;;;2.77;100.00
68793;BME280;55778;54.346;10.210;2023-02-19T01:07:10;101077.38;;;2.78;100.00
68793;BME280;55778;54.346;10.210;2023-02-19T01:09:36;101078.16;;;2.80;100.00
68793;BME280;55778;54.346;10.210;2023-02-19T01:12:03;101084.94;;;2.71;100.00
68793;BME280;55778;54.346;10.210;2023-02-19T01:14:29;101085.63;;;2.75;100.00
68793;BME280;55778;54.346;10.210;2023-02-19T01:16:54;101075.28;;;2.83;100.00
68793;BME280;55778;54.346;10.210;2023-02-19T01:19:20;101069.56;;;2.73;100.00
68793;BME280;55778;54.346;10.210;2023-02-19T01:21:45;101073.22;;;2.72;100.00
68793;BME280;55778;54.346;10.210;2023-02-19T01:24:11;101081.81;;;2.79;100.00
68793;BME280;55778;54.346;10.210;2023-02-19T01:26:36;101079.38;;;2.74;100.00
68793;BME280;55778;54.346;10.210;2023-02-19T01:29:02;101075.91;;;2.72;100.00
68793;BME280;55778;54.346;10.210;2023-02-19T01:31:28;101078.50;;;2.74;100.00
68793;BME280;55778;54.346;10.210;2023-02-19T01:33:56;101082.09;;;2.74;100.00
68793;BME280;55778;54.346;10.210;2023-02-19T01:36:22;101079.38;;;2.74;100.00
68793;BME280;55778;54.346;10.210;2023-02-19T01:38:48;101083.53;;;2.80;100.00
68793;BME280;55778;54.346;10.210;2023-02-19T01:41:24;101087.19;;;2.79;100.00
68793;BME280;55778;54.346;10.210;2023-02-19T01:43:59;101090.06;;;2.76;100.00
68793;BME280;55778;54.346;10.210;2023-02-19T01:46:30;101089.00;;;2.78;100.00
68793;BME280;55778;54.346;10.210;2023-02-19T01:49:20;101084.25;;;2.83;100.00
68793;BME280;55778;54.346;10.210;2023-02-19T01:51:51;101079.72;;;2.84;100.00
68793;BME280;55778;54.346;10.210;2023-02-19T01:54:24;101079.78;;;2.82;100.00
68793;BME280;55778;54.346;10.210;2023-02-19T01:56:52;101080.84;;;2.80;100.00
68793;BME280;55778;54.346;10.210;2023-02-19T01:59:18;101076.44;;;2.79;100.00
68793;BME280;55778;54.346;10.210;2023-02-19T02:01:44;101076.25;;;2.82;100.00
68793;BME280;55778;54.346;10.210;2023-02-19T02:04:12;101081.03;;;2.77;100.00
68793;BME280;55778;54.346;10.210;2023-02-19T02:06:45;101077.09;;;2.82;100.00
68793;BME280;55778;54.346;10.210;2023-02-19T02:09:12;101066.84;;;2.89;100.00
68793;BME280;55778;54.346;10.210;2023-02-19T02:11:57;101074.50;;;2.81;100.00
68793;BME280;55778;54.346;10.210;2023-02-19T02:14:26;101071.72;;;2.82;100.00
68793;BME280;55778;54.346;10.210;2023-02-19T02:22:35;101063.19;;;2.90;100.00
68793;BME280;55778;54.346;10.210;2023-02-19T02:35:48;101049.88;;;2.73;100.00
68793;BME280;55778;54.346;10.210;2023-02-19T02:38:17;101044.16;;;2.63;100.00
68793;BME280;55778;54.346;10.210;2023-02-19T02:40:45;101045.97;;;2.63;100.00
68793;BME280;55778;54.346;10.210;2023-02-19T02:43:11;101043.81;;;2.69;100.00
68793;BME280;55778;54.346;10.210;2023-02-19T02:45:37;101047.38;;;2.70;100.00
68793;BME280;55778;54.346;10.210;2023-02-19T02:50:39;101045.38;;;2.58;100.00
68793;BME280;55778;54.346;10.210;2023-02-19T02:53:10;101056.16;;;2.58;100.00
68793;BME280;55778;54.346;10.210;2023-02-19T02:55:56;101055.28;;;2.57;100.00
68793;BME280;55778;54.346;10.210;2023-02-19T02:58:24;101049.41;;;2.51;100.00
68793;BME280;55778;54.346;10.210;2023-02-19T03:00:56;101052.00;;;2.52;100.00
68793;BME280;55778;54.346;10.210;2023-02-19T03:03:44;101057.22;;;2.55;100.00
68793;BME280;55778;54.346;10.210;2023-02-19T03:06:14;101058.22;;;2.53;100.00
68793;BME280;55778;54.346;10.210;2023-02-19T03:08:59;101050.50;;;2.47;100.00
68793;BME280;55778;54.346;10.210;2023-02-19T03:11:27;101048.78;;;2.46;100.00
68793;BME280;55778;54.346;10.210;2023-02-19T03:14:20;101054.34;;;2.43;100.00
68793;BME280;55778;54.346;10.210;2023-02-19T03:17:11;101059.00;;;2.39;100.00
68793;BME280;55778;54.346;10.210;2023-02-19T03:19:59;101063.44;;;2.40;100.00
68793;BME280;55778;54.346;10.210;2023-02-19T03:22:30;101066.91;;;2.42;100.00
68793;BME280;55778;54.346;10.210;2023-02-19T03:25:00;101071.94;;;2.33;100.00
68793;BME280;55778;54.346;10.210;2023-02-19T03:27:48;101069.94;;;2.36;100.00
68793;BME280;55778;54.346;10.210;2023-02-19T03:30:19;101069.59;;;2.42;100.00
68793;BME280;55778;54.346;10.210;2023-02-19T03:35:24;101080.38;;;2.27;100.00
68793;BME280;55778;54.346;10.210;2023-02-19T03:41:17;101086.25;;;2.33;100.00
68793;BME280;55778;54.346;10.210;2023-02-19T03:46:53;101079.56;;;2.25;100.00
68793;BME280;55778;54.346;10.210;2023-02-19T03:49:28;101085.81;;;2.25;100.00
68793;BME280;55778;54.346;10.210;2023-02-19T03:57:27;101100.38;;;2.21;100.00
68793;BME280;55778;54.346;10.210;2023-02-19T04:00:04;101112.88;;;2.22;100.00
68793;BME280;55778;54.346;10.210;2023-02-19T04:02:50;101113.94;;;2.20;100.00
68793;BME280;55778;54.346;10.210;2023-02-19T04:05:20;101108.72;;;2.17;100.00
68793;BME280;55778;54.346;10.210;2023-02-19T04:07:49;101119.38;;;2.18;100.00
68793;BME280;55778;54.346;10.210;2023-02-19T04:10:17;101119.31;;;2.20;100.00
68793;BME280;55778;54.346;10.210;2023-02-19T04:12:48;101123.78;;;2.19;100.00
68793;BME280;55778;54.346;10.210;2023-02-19T04:15:20;101124.38;;;2.08;100.00
68793;BME280;55778;54.346;10.210;2023-02-19T04:17:55;101123.09;;;2.16;100.00
68793;BME280;55778;54.346;10.210;2023-02-19T04:20:24;101129.25;;;2.18;100.00
68793;BME280;55778;54.346;10.210;2023-02-19T04:22:51;101138.78;;;2.08;100.00
68793;BME280;55778;54.346;10.210;2023-02-19T04:25:17;101155.84;;;2.06;100.00
68793;BME280;55778;54.346;10.210;2023-02-19T04:27:43;101158.00;;;2.00;100.00
68793;BME280;55778;54.346;10.210;2023-02-19T04:30:11;101159.72;;;2.01;100.00
68793;BME280;55778;54.346;10.210;2023-02-19T04:32:36;101150.47;;;2.06;100.00
68793;BME280;55778;54.346;10.210;2023-02-19T04:35:02;101159.81;;;1.99;100.00
68793;BME280;55778;54.346;10.210;2023-02-19T04:37:27;101167.47;;;2.07;100.00
68793;BME280;55778;54.346;10.210;2023-02-19T04:39:53;101173.81;;;2.06;100.00
68793;BME280;55778;54.346;10.210;2023-02-19T04:42:18;101181.22;;;2.01;100.00
68793;BME280;55778;54.346;10.210;2023-02-19T04:44:44;101177.59;;;2.02;100.00
68793;BME280;55778;54.346;10.210;2023-02-19T04:47:09;101174.72;;;2.05;100.00
68793;BME280;55778;54.346;10.210;2023-02-19T04:49:34;101176.91;;;1.98;100.00
68793;BME280;55778;54.346;10.210;2023-02-19T04:52:00;101174.38;;;1.95;100.00
68793;BME280;55778;54.346;10.210;2023-02-19T04:54:25;101174.47;;;1.94;100.00
68793;BME280;55778;54.346;10.210;2023-02-19T04:56:51;101174.63;;;1.91;100.00
68793;BME280;55778;54.346;10.210;2023-02-19T04:59:16;101175.56;;;1.90;100.00
68793;BME280;55778;54.346;10.210;2023-02-19T05:01:42;101179.44;;;1.84;100.00
68793;BME280;55778;54.346;10.210;2023-02-19T05:04:07;101167.94;;;1.82;100.00
68793;BME280;55778;54.346;10.210;2023-02-19T05:06:32;101170.41;;;1.85;100.00
68793;BME280;55778;54.346;10.210;2023-02-19T05:08:58;101172.56;;;1.79;100.00
68793;BME280;55778;54.346;10.210;2023-02-19T05:11:23;101174.78;;;1.88;100.00
68793;BME280;55778;54.346;10.210;2023-02-19T05:13:49;101186.34;;;1.73;100.00
68793;BME280;55778;54.346;10.210;2023-02-19T05:16:15;101186.50;;;1.70;100.00
68793;BME280;55778;54.346;10.210;2023-02-19T05:18:42;101185.75;;;1.66;100.00
68793;BME280;55778;54.346;10.210;2023-02-19T05:21:08;101194.47;;;1.71;100.00
68793;BME280;55778;54.346;10.210;2023-02-19T05:23:34;101194.63;;;1.68;100.00
68793;BME280;55778;54.346;10.210;2023-02-19T05:26:07;101200.16;;;1.65;100.00
68793;BME280;55778;54.346;10.210;2023-02-19T05:28:33;101196.66;;;1.63;100.00
68793;BME280;55778;54.346;10.210;2023-02-19T05:31:03;101202.91;;;1.64;100.00
68793;BME280;55778;54.346;10.210;2023-02-19T05:33:29;101214.53;;;1.64;100.00
68793;BME280;55778;54.346;10.210;2023-02-19T05:35:55;101208.38;;;1.62;100.00
68793;BME280;55778;54.346;10.210;2023-02-19T05:38:21;101223.13;;;1.71;100.00
68793;BME280;55778;54.346;10.210;2023-02-19T05:40:46;101220.53;;;1.69;100.00
68793;BME280;55778;54.346;10.210;2023-02-19T05:43:12;101222.38;;;1.69;100.00
68793;BME280;55778;54.346;10.210;2023-02-19T05:45:38;101214.91;;;1.74;100.00
68793;BME280;55778;54.346;10.210;2023-02-19T05:48:04;101231.50;;;1.65;100.00
68793;BME280;55778;54.346;10.210;2023-02-19T05:50:32;101228.81;;;1.65;100.00
68793;BME280;55778;54.346;10.210;2023-02-19T05:52:59;101228.81;;;1.65;100.00
68793;BME280;55778;54.346;10.210;2023-02-19T05:55:26;101244.69;;;1.69;100.00
68793;BME280;55778;54.346;10.210;2023-02-19T05:57:51;101246.53;;;1.69;100.00
68793;BME280;55778;54.346;10.210;2023-02-19T06:00:18;101263.19;;;1.75;100.00
68793;BME280;55778;54.346;10.210;2023-02-19T06:02:44;101259.34;;;1.81;100.00
68793;BME280;55778;54.346;10.210;2023-02-19T06:05:10;101265.50;;;1.83;100.00
68793;BME280;55778;54.346;10.210;2023-02-19T06:07:36;101261.78;;;1.85;100.00
68793;BME280;55778;54.346;10.210;2023-02-19T06:10:04;101273.16;;;1.90;100.00
68793;BME280;55778;54.346;10.210;2023-02-19T06:12:30;101273.47;;;1.84;100.00
68793;BME280;55778;54.346;10.210;2023-02-19T06:14:55;101265.97;;;1.91;100.00
68793;BME280;55778;54.346;10.210;2023-02-19T06:17:20;101266.75;;;1.93;100.00
68793;BME280;55778;54.346;10.210;2023-02-19T06:19:46;101272.03;;;1.94;100.00
68793;BME280;55778;54.346;10.210;2023-02-19T06:22:13;101271.88;;;1.97;100.00
68793;BME280;55778;54.346;10.210;2023-02-19T06:24:39;101285.16;;;2.00;100.00
68793;BME280;55778;54.346;10.210;2023-02-19T06:27:06;101290.69;;;1.97;100.00
68793;BME280;55778;54.346;10.210;2023-02-19T06:29:31;101287.78;;;2.02;100.00
68793;BME280;55778;54.346;10.210;2023-02-19T06:31:58;101290.22;;;2.06;100.00
68793;BME280;55778;54.346;10.210;2023-02-19T06:34:23;101291.91;;;2.09;100.00
68793;BME280;55778;54.346;10.210;2023-02-19T06:36:49;101295.22;;;2.14;100.00
68793;BME280;55778;54.346;10.210;2023-02-19T06:39:15;101297.28;;;2.09;100.00
68793;BME280;55778;54.346;10.210;2023-02-19T06:41:40;101308.88;;;2.09;100.00
68793;BME280;55778;54.346;10.210;2023-02-19T06:44:06;101313.25;;;2.12;100.00
68793;BME280;55778;54.346;10.210;2023-02-19T06:46:31;101311.72;;;2.06;100.00
68793;BME280;55778;54.346;10.210;2023-02-19T06:48:56;101319.63;;;2.09;100.00
68793;BME280;55778;54.346;10.210;2023-02-19T06:51:22;101333.06;;;2.09;100.00
68793;BME280;55778;54.346;10.210;2023-02-19T06:53:50;101332.22;;;2.09;100.00
68793;BME280;55778;54.346;10.210;2023-02-19T06:56:42;101334.84;;;2.11;100.00
68793;BME280;55778;54.346;10.210;2023-02-19T06:59:10;101339.56;;;2.05;100.00
68793;BME280;55778;54.346;10.210;2023-02-19T07:01:38;101336.38;;;1.97;100.00
68793;BME280;55778;54.346;10.210;2023-02-19T07:04:05;101343.91;;;2.08;100.00
68793;BME280;55778;54.346;10.210;2023-02-19T07:06:32;101357.56;;;2.03;100.00
68793;BME280;55778;54.346;10.210;2023-02-19T07:08:59;101361.22;;;2.02;100.00
68793;BME280;55778;54.346;10.210;2023-02-19T07:11:25;101371.81;;;2.05;100.00
68793;BME280;55778;54.346;10.210;2023-02-19T07:13:54;101364.72;;;2.04;100.00
68793;BME280;55778;54.346;10.210;2023-02-19T07:16:20;101373.56;;;2.06;100.00
68793;BME280;55778;54.346;10.210;2023-02-19T07:18:46;101374.44;;;2.07;100.00
68793;BME280;55778;54.346;10.210;2023-02-19T07:21:13;101385.41;;;2.02;100.00
68793;BME280;55778;54.346;10.210;2023-02-19T07:23:39;101381.31;;;2.13;100.00
68793;BME280;55778;54.346;10.210;2023-02-19T07:26:08;101383.28;;;2.26;100.00
68793;BME280;55778;54.346;10.210;2023-02-19T07:28:34;101393.50;;;2.37;100.00
68793;BME280;55778;54.346;10.210;2023-02-19T07:31:00;101400.31;;;2.44;100.00
68793;BME280;55778;54.346;10.210;2023-02-19T07:33:26;101395.06;;;2.41;100.00
68793;BME280;55778;54.346;10.210;2023-02-19T07:35:52;101410.53;;;2.37;100.00
68793;BME280;55778;54.346;10.210;2023-02-19T07:38:19;101415.75;;;2.40;100.00
68793;BME280;55778;54.346;10.210;2023-02-19T07:40:52;101427.03;;;2.47;100.00
68793;BME280;55778;54.346;10.210;2023-02-19T07:43:18;101428.94;;;2.62;100.00
68793;BME280;55778;54.346;10.210;2023-02-19T07:45:46;101440.56;;;2.79;100.00
68793;BME280;55778;54.346;10.210;2023-02-19T07:48:12;101442.25;;;2.82;100.00
68793;BME280;55778;54.346;10.210;2023-02-19T07:50:38;101446.66;;;2.83;100.00
68793;BME280;55778;54.346;10.210;2023-02-19T07:53:03;101450.13;;;3.02;100.00
68793;BME280;55778;54.346;10.210;2023-02-19T07:55:30;101440.06;;;2.88;100.00
68793;BME280;55778;54.346;10.210;2023-02-19T07:57:57;101445.13;;;2.94;100.00
68793;BME280;55778;54.346;10.210;2023-02-19T08:00:22;101448.31;;;3.02;100.00
68793;BME280;55778;54.346;10.210;2023-02-19T08:02:50;101446.13;;;3.09;100.00
68793;BME280;55778;54.346;10.210;2023-02-19T08:05:25;101455.72;;;3.14;100.00
68793;BME280;55778;54.346;10.210;2023-02-19T08:07:51;101455.59;;;3.33;100.00
68793;BME280;55778;54.346;10.210;2023-02-19T08:10:16;101455.25;;;3.39;100.00
68793;BME280;55778;54.346;10.210;2023-02-19T08:13:00;101452.81;;;3.34;100.00
68793;BME280;55778;54.346;10.210;2023-02-19T08:15:55;101446.13;;;3.41;100.00
68793;BME280;55778;54.346;10.210;2023-02-19T08:54:40;101505.66;;;4.47;93.70
68793;BME280;55778;54.346;10.210;2023-02-19T08:57:06;101508.66;;;4.72;91.55
68793;BME280;55778;54.346;10.210;2023-02-19T08:59:31;101512.88;;;4.62;91.82
68793;BME280;55778;54.346;10.210;2023-02-19T09:01:57;101514.97;;;4.87;91.35
68793;BME280;55778;54.346;10.210;2023-02-19T09:04:23;101530.59;;;4.82;90.23
68793;BME280;55778;54.346;10.210;2023-02-19T09:06:49;101526.72;;;5.15;89.86
68793;BME280;55778;54.346;10.210;2023-02-19T09:09:15;101525.41;;;4.93;89.15
68793;BME280;55778;54.346;10.210;2023-02-19T09:11:40;101536.00;;;5.11;87.67
68793;BME280;55778;54.346;10.210;2023-02-19T09:14:06;101536.78;;;5.27;86.74
68793;BME280;55778;54.346;10.210;2023-02-19T09:16:35;101542.91;;;5.31;86.24
68793;BME280;55778;54.346;10.210;2023-02-19T09:19:01;101547.88;;;5.23;85.65
68793;BME280;55778;54.346;10.210;2023-02-19T09:21:27;101546.06;;;5.23;85.49
68793;BME280;55778;54.346;10.210;2023-02-19T09:23:52;101554.09;;;5.09;85.55
68793;BME280;55778;54.346;10.210;2023-02-19T09:26:18;101557.91;;;4.91;86.04
68793;BME280;55778;54.346;10.210;2023-02-19T09:28:43;101557.88;;;5.07;84.73
68793;BME280;55778;54.346;10.210;2023-02-19T09:31:13;101563.97;;;5.10;85.15
68793;BME280;55778;54.346;10.210;2023-02-19T09:33:44;101564.59;;;5.29;84.51
68793;BME280;55778;54.346;10.210;2023-02-19T09:36:10;101562.09;;;5.26;83.95
68793;BME280;55778;54.346;10.210;2023-02-19T09:38:36;101568.22;;;5.72;83.37
68793;BME280;55778;54.346;10.210;2023-02-19T09:41:14;101559.34;;;5.70;80.56
68793;BME280;55778;54.346;10.210;2023-02-19T09:43:42;101558.81;;;5.35;82.23
68793;BME280;55778;54.346;10.210;2023-02-19T09:49:06;101560.88;;;5.46;78.21
68793;BME280;55778;54.346;10.210;2023-02-19T09:51:36;101569.44;;;5.96;79.07
68793;BME280;55778;54.346;10.210;2023-02-19T09:54:08;101567.63;;;5.67;77.14
68793;BME280;55778;54.346;10.210;2023-02-19T09:56:36;101572.63;;;5.45;78.97
68793;BME280;55778;54.346;10.210;2023-02-19T09:59:02;101576.34;;;5.72;77.69
68793;BME280;55778;54.346;10.210;2023-02-19T10:01:31;101599.28;;;5.94;78.39
68793;BME280;55778;54.346;10.210;2023-02-19T10:04:02;101610.94;;;6.37;77.09
68793;BME280;55778;54.346;10.210;2023-02-19T10:06:28;101609.81;;;5.99;75.07
68793;BME280;55778;54.346;10.210;2023-02-19T10:11:39;101620.34;;;6.18;75.62
68793;BME280;55778;54.346;10.210;2023-02-19T10:14:12;101632.59;;;5.95;76.35
68793;BME280;55778;54.346;10.210;2023-02-19T10:16:41;101641.19;;;6.58;75.68
68793;BME280;55778;54.346;10.210;2023-02-19T10:19:11;101646.94;;;6.39;74.10
68793;BME280;55778;54.346;10.210;2023-02-19T10:21:37;101642.72;;;6.62;72.59
68793;BME280;55778;54.346;10.210;2023-02-19T10:24:04;101650.59;;;5.96;73.59
68793;BME280;55778;54.346;10.210;2023-02-19T10:26:31;101658.41;;;6.14;73.60
68793;BME280;55778;54.346;10.210;2023-02-19T10:29:00;101652.13;;;6.00;73.75
68793;BME280;55778;54.346;10.210;2023-02-19T10:31:26;101663.13;;;5.97;75.12
68793;BME280;55778;54.346;10.210;2023-02-19T10:33:56;101670.88;;;6.73;71.99
68793;BME280;55778;54.346;10.210;2023-02-19T10:36:31;101668.06;;;6.75;70.12
68793;BME280;55778;54.346;10.210;2023-02-19T10:38:58;101666.16;;;6.21;69.09
68793;BME280;55778;54.346;10.210;2023-02-19T10:41:26;101660.34;;;6.27;69.33
68793;BME280;55778;54.346;10.210;2023-02-19T10:44:03;101650.00;;;6.47;68.29
68793;BME280;55778;54.346;10.210;2023-02-19T10:46:35;101678.94;;;6.19;70.67
68793;BME280;55778;54.346;10.210;2023-02-19T10:49:31;101676.22;;;6.33;70.23
68793;BME280;55778;54.346;10.210;2023-02-19T10:52:36;101676.75;;;5.95;69.24
68793;BME280;55778;54.346;10.210;2023-02-19T10:57:45;101676.03;;;6.22;68.77
68793;BME280;55778;54.346;10.210;2023-02-19T11:02:39;101679.53;;;6.78;67.18
68793;BME280;55778;54.346;10.210;2023-02-19T11:07:35;101692.16;;;6.37;64.00
68793;BME280;55778;54.346;10.210;2023-02-19T11:10:02;101683.75;;;6.56;66.56
68793;BME280;55778;54.346;10.210;2023-02-19T11:12:32;101690.88;;;6.71;65.14
68793;BME280;55778;54.346;10.210;2023-02-19T11:15:20;101680.84;;;6.17;63.93
68793;BME280;55778;54.346;10.210;2023-02-19T11:17:55;101689.25;;;6.26;64.41
68793;BME280;55778;54.346;10.210;2023-02-19T11:20:21;101699.38;;;6.79;64.12
68793;BME280;55778;54.346;10.210;2023-02-19T11:22:47;101699.69;;;6.74;63.38
68793;BME280;55778;54.346;10.210;2023-02-19T11:32:55;101709.28;;;6.52;60.75
68793;BME280;55778;54.346;10.210;2023-02-19T11:35:21;101706.72;;;6.77;61.41
68793;BME280;55778;54.346;10.210;2023-02-19T11:40:28;101711.09;;;6.65;64.18
68793;BME280;55778;54.346;10.210;2023-02-19T11:43:08;101714.88;;;7.17;62.27
68793;BME280;55778;54.346;10.210;2023-02-19T11:45:45;101706.78;;;7.03;61.84
68793;BME280;55778;54.346;10.210;2023-02-19T11:54:01;101708.78;;;6.73;58.82
68793;BME280;55778;54.346;10.210;2023-02-19T11:56:33;101705.53;;;6.95;59.59
68793;BME280;55778;54.346;10.210;2023-02-19T11:59:11;101711.31;;;6.76;58.37
68793;BME280;55778;54.346;10.210;2023-02-19T12:01:57;101712.63;;;6.83;58.80
68793;BME280;55778;54.346;10.210;2023-02-19T12:20:13;101734.50;;;6.80;60.05
68793;BME280;55778;54.346;10.210;2023-02-19T12:29:07;101723.53;;;7.36;58.74
68793;BME280;55778;54.346;10.210;2023-02-19T12:34:49;101727.47;;;7.18;58.21
68793;BME280;55778;54.346;10.210;2023-02-19T12:43:19;101723.09;;;7.56;59.00
68793;BME280;55778;54.346;10.210;2023-02-19T12:45:54;101712.66;;;7.24;60.33
68793;BME280;55778;54.346;10.210;2023-02-19T12:50:56;101703.97;;;7.97;59.73
68793;BME280;55778;54.346;10.210;2023-02-19T12:55:51;101694.22;;;8.19;60.25
68793;BME280;55778;54.346;10.210;2023-02-19T12:58:29;101681.94;;;7.89;61.05
68793;BME280;55778;54.346;10.210;2023-02-19T13:00:57;101694.03;;;7.71;62.79
68793;BME280;55778;54.346;10.210;2023-02-19T13:03:31;101684.41;;;7.79;63.74
68793;BME280;55778;54.346;10.210;2023-02-19T13:06:23;101679.63;;;7.83;63.25
68793;BME280;55778;54.346;10.210;2023-02-19T13:08:58;101682.16;;;7.47;62.34
68793;BME280;55778;54.346;10.210;2023-02-19T13:11:49;101679.84;;;7.41;61.81
68793;BME280;55778;54.346;10.210;2023-02-19T13:17:07;101699.44;;;7.05;60.65
68793;BME280;55778;54.346;10.210;2023-02-19T13:19:37;101682.94;;;7.61;59.70
68793;BME280;55778;54.346;10.210;2023-02-19T13:22:15;101680.22;;;7.49;58.46
68793;BME280;55778;54.346;10.210;2023-02-19T13:25:02;101683.63;;;7.38;60.16
68793;BME280;55778;54.346;10.210;2023-02-19T13:27:42;101688.13;;;7.52;60.69
68793;BME280;55778;54.346;10.210;2023-02-19T13:33:02;101681.31;;;7.59;63.42
68793;BME280;55778;54.346;10.210;2023-02-19T13:38:31;101690.91;;;7.11;64.29
68793;BME280;55778;54.346;10.210;2023-02-19T13:40:58;101686.56;;;7.09;62.80
68793;BME280;55778;54.346;10.210;2023-02-19T13:43:29;101689.63;;;7.17;58.92
68793;BME280;55778;54.346;10.210;2023-02-19T13:46:10;101692.41;;;7.15;55.26
68793;BME280;55778;54.346;10.210;2023-02-19T13:48:38;101692.53;;;7.14;58.98
68793;BME280;55778;54.346;10.210;2023-02-19T13:53:56;101691.00;;;7.10;61.81
68793;BME280;55778;54.346;10.210;2023-02-19T13:59:25;101692.31;;;7.17;64.28
68793;BME280;55778;54.346;10.210;2023-02-19T14:14:34;101699.19;;;7.22;60.89
68793;BME280;55778;54.346;10.210;2023-02-19T14:27:53;101678.94;;;6.87;66.75
68793;BME280;55778;54.346;10.210;2023-02-19T14:30:20;101669.69;;;6.77;67.51
68793;BME280;55778;54.346;10.210;2023-02-19T14:32:47;101661.03;;;6.58;69.41
68793;BME280;55778;54.346;10.210;2023-02-19T14:35:43;101647.56;;;6.57;69.14
68793;BME280;55778;54.346;10.210;2023-02-19T14:38:25;101632.72;;;6.36;70.62
68793;BME280;55778;54.346;10.210;2023-02-19T14:40:54;101648.56;;;6.42;71.19
68793;BME280;55778;54.346;10.210;2023-02-19T14:43:21;101647.28;;;6.47;71.83
68793;BME280;55778;54.346;10.210;2023-02-19T14:45:52;101656.19;;;6.49;72.34
68793;BME280;55778;54.346;10.210;2023-02-19T14:48:23;101655.31;;;6.63;71.94
68793;BME280;55778;54.346;10.210;2023-02-19T14:50:54;101657.31;;;6.73;70.75
68793;BME280;55778;54.346;10.210;2023-02-19T14:53:21;101661.28;;;6.68;70.28
68793;BME280;55778;54.346;10.210;2023-02-19T14:55:49;101663.44;;;6.63;69.02
68793;BME280;55778;54.346;10.210;2023-02-19T14:58:23;101661.91;;;6.59;69.26
68793;BME280;55778;54.346;10.210;2023-02-19T15:00:50;101669.03;;;6.60;68.95
68793;BME280;55778;54.346;10.210;2023-02-19T15:03:34;101671.16;;;6.69;69.43
68793;BME280;55778;54.346;10.210;2023-02-19T15:06:04;101664.72;;;6.57;68.58
68793;BME280;55778;54.346;10.210;2023-02-19T15:08:33;101674.47;;;6.46;69.48
68793;BME280;55778;54.346;10.210;2023-02-19T15:11:02;101671.75;;;6.46;69.73
68793;BME280;55778;54.346;10.210;2023-02-19T15:13:28;101677.75;;;6.23;70.55
68793;BME280;55778;54.346;10.210;2023-02-19T15:15:55;101676.03;;;6.22;71.02
68793;BME280;55778;54.346;10.210;2023-02-19T15:18:23;101665.75;;;5.98;72.45
68793;BME280;55778;54.346;10.210;2023-02-19T15:20:50;101665.66;;;6.00;73.63
68793;BME280;55778;54.346;10.210;2023-02-19T15:23:23;101675.81;;;6.10;73.80
68793;BME280;55778;54.346;10.210;2023-02-19T15:25:49;101684.00;;;5.95;75.21
68793;BME280;55778;54.346;10.210;2023-02-19T15:33:20;101687.81;;;5.77;77.45
68793;BME280;55778;54.346;10.210;2023-02-19T15:35:48;101687.13;;;5.73;78.71
68793;BME280;55778;54.346;10.210;2023-02-19T15:38:14;101692.28;;;5.62;79.70
68793;BME280;55778;54.346;10.210;2023-02-19T15:40:43;101684.44;;;5.58;80.61
68793;BME280;55778;54.346;10.210;2023-02-19T15:43:21;101681.00;;;5.56;81.02
68793;BME280;55778;54.346;10.210;2023-02-19T15:45:48;101683.09;;;5.51;81.87
68793;BME280;55778;54.346;10.210;2023-02-19T15:48:21;101680.38;;;5.51;82.58
68793;BME280;55778;54.346;10.210;2023-02-19T15:50:54;101672.72;;;5.43;83.04
68793;BME280;55778;54.346;10.210;2023-02-19T15:53:24;101679.38;;;5.38;82.29